sensor_id;sensor_type;location;lat;lon;timestamp;pressure;altitude;pressure_sealevel;temperature;humidity
67517;BME280;68821;59.134;37.894;2023-08-07T00:01:00;100251.13;;;23.66;70.15
67517;BME280;68821;59.134;37.894;2023-08-07T00:03:26;100251.25;;;23.63;70.44
67517;BME280;68821;59.134;37.894;2023-08-07T00:05:52;100250.53;;;23.59;70.41
67517;BME280;68821;59.134;37.894;2023-08-07T00:08:18;100251.56;;;23.55;70.46
67517;BME280;68821;59.134;37.894;2023-08-07T00:10:44;100248.19;;;23.52;70.31
67517;BME280;68821;59.134;37.894;2023-08-07T00:13:10;100255.41;;;23.46;70.45
67517;BME280;68821;59.134;37.894;2023-08-07T00:15:39;100252.94;;;23.42;70.43
67517;BME280;68821;59.134;37.894;2023-08-07T00:18:05;100250.47;;;23.37;70.57
67517;BME280;68821;59.134;37.894;2023-08-07T00:20:31;100251.50;;;23.33;70.75
67517;BME280;68821;59.134;37.894;2023-08-07T00:22:57;100250.06;;;23.26;70.81
67517;BME280;68821;59.134;37.894;2023-08-07T00:25:23;100257.91;;;23.26;70.74
67517;BME280;68821;59.134;37.894;2023-08-07T00:27:49;100257.19;;;23.22;70.77
67517;BME280;68821;59.134;37.894;2023-08-07T00:30:15;100259.91;;;23.19;70.94
67517;BME280;68821;59.134;37.894;2023-08-07T00:32:41;100268.75;;;23.17;70.88
67517;BME280;68821;59.134;37.894;2023-08-07T00:35:07;100268.88;;;23.14;71.00
67517;BME280;68821;59.134;37.894;2023-08-07T00:37:37;100265.50;;;23.10;71.07
67517;BME280;68821;59.134;37.894;2023-08-07T00:40:03;100266.47;;;23.07;71.20
67517;BME280;68821;59.134;37.894;2023-08-07T00:42:29;100270.03;;;23.05;71.16
67517;BME280;68821;59.134;37.894;2023-08-07T00:44:55;100260.63;;;22.99;71.20
67517;BME280;68821;59.134;37.894;2023-08-07T00:47:21;100260.66;;;22.98;71.58
67517;BME280;68821;59.134;37.894;2023-08-07T00:49:48;100268.59;;;22.96;71.28
67517;BME280;68821;59.134;37.894;2023-08-07T00:52:14;100266.09;;;22.93;71.06
67517;BME280;68821;59.134;37.894;2023-08-07T00:54:40;100260.94;;;22.90;71.21
67517;BME280;68821;59.134;37.894;2023-08-07T00:57:10;100258.50;;;22.85;71.26
67517;BME280;68821;59.134;37.894;2023-08-07T00:59:38;100258.50;;;22.85;71.42
67517;BME280;68821;59.134;37.894;2023-08-07T01:02:05;100254.31;;;22.80;71.51
67517;BME280;68821;59.134;37.894;2023-08-07T01:04:32;100256.13;;;22.78;71.82
67517;BME280;68821;59.134;37.894;2023-08-07T01:06:58;100258.88;;;22.75;71.70
67517;BME280;68821;59.134;37.894;2023-08-07T01:09:24;100254.53;;;22.74;71.79
67517;BME280;68821;59.134;37.894;2023-08-07T01:11:57;100253.69;;;22.73;71.84
67517;BME280;68821;59.134;37.894;2023-08-07T01:14:36;100249.41;;;22.70;72.37
67517;BME280;68821;59.134;37.894;2023-08-07T01:17:11;100255.56;;;22.69;72.13
67517;BME280;68821;59.134;37.894;2023-08-07T01:19:40;100256.41;;;22.70;72.35
67517;BME280;68821;59.134;37.894;2023-08-07T01:22:08;100247.84;;;22.65;72.39
67517;BME280;68821;59.134;37.894;2023-08-07T01:24:35;100252.13;;;22.67;71.99
67517;BME280;68821;59.134;37.894;2023-08-07T01:30:00;100242.63;;;22.65;72.26
67517;BME280;68821;59.134;37.894;2023-08-07T01:32:40;100238.34;;;22.62;72.24
67517;BME280;68821;59.134;37.894;2023-08-07T01:35:08;100240.97;;;22.62;72.58
67517;BME280;68821;59.134;37.894;2023-08-07T01:37:40;100244.47;;;22.61;72.51
67517;BME280;68821;59.134;37.894;2023-08-07T01:40:08;100243.63;;;22.61;72.53
67517;BME280;68821;59.134;37.894;2023-08-07T01:42:35;100236.75;;;22.58;72.67
67517;BME280;68821;59.134;37.894;2023-08-07T01:45:03;100238.50;;;22.58;72.71
67517;BME280;68821;59.134;37.894;2023-08-07T01:47:30;100242.00;;;22.58;72.34
67517;BME280;68821;59.134;37.894;2023-08-07T01:49:56;100237.63;;;22.57;72.52
67517;BME280;68821;59.134;37.894;2023-08-07T01:52:22;100248.88;;;22.61;72.61
67517;BME280;68821;59.134;37.894;2023-08-07T01:54:48;100239.25;;;22.61;72.69
67517;BME280;68821;59.134;37.894;2023-08-07T01:57:14;100240.09;;;22.62;72.43
67517;BME280;68821;59.134;37.894;2023-08-07T01:59:40;100240.09;;;22.62;73.02
67517;BME280;68821;59.134;37.894;2023-08-07T02:02:06;100238.34;;;22.62;72.59
67517;BME280;68821;59.134;37.894;2023-08-07T02:04:32;100239.19;;;22.63;72.90
67517;BME280;68821;59.134;37.894;2023-08-07T02:06:58;100234.84;;;22.62;72.71
67517;BME280;68821;59.134;37.894;2023-08-07T02:09:24;100242.66;;;22.63;73.07
67517;BME280;68821;59.134;37.894;2023-08-07T02:11:50;100236.56;;;22.63;72.60
67517;BME280;68821;59.134;37.894;2023-08-07T02:14:16;100253.94;;;22.65;72.82
67517;BME280;68821;59.134;37.894;2023-08-07T02:16:42;100255.59;;;22.68;72.75
67517;BME280;68821;59.134;37.894;2023-08-07T02:19:08;100240.00;;;22.65;72.57
67517;BME280;68821;59.134;37.894;2023-08-07T02:21:34;100247.69;;;22.69;72.61
67517;BME280;68821;59.134;37.894;2023-08-07T02:24:00;100250.25;;;22.71;72.62
67517;BME280;68821;59.134;37.894;2023-08-07T02:26:26;100246.72;;;22.72;72.50
67517;BME280;68821;59.134;37.894;2023-08-07T02:28:52;100249.28;;;22.74;72.40
67517;BME280;68821;59.134;37.894;2023-08-07T02:31:18;100240.53;;;22.75;72.38
67517;BME280;68821;59.134;37.894;2023-08-07T02:33:44;100246.56;;;22.77;72.37
67517;BME280;68821;59.134;37.894;2023-08-07T02:36:10;100248.28;;;22.78;72.38
67517;BME280;68821;59.134;37.894;2023-08-07T02:38:36;100242.00;;;22.82;72.24
67517;BME280;68821;59.134;37.894;2023-08-07T02:41:02;100236.78;;;22.82;72.56
67517;BME280;68821;59.134;37.894;2023-08-07T02:43:28;100234.94;;;22.84;72.34
67517;BME280;68821;59.134;37.894;2023-08-07T02:45:54;100241.84;;;22.86;72.38
67517;BME280;68821;59.134;37.894;2023-08-07T02:48:20;100245.34;;;22.87;72.35
67517;BME280;68821;59.134;37.894;2023-08-07T02:50:46;100251.31;;;22.90;71.92
67517;BME280;68821;59.134;37.894;2023-08-07T02:53:12;100242.59;;;22.90;71.79
67517;BME280;68821;59.134;37.894;2023-08-07T02:55:38;100250.34;;;22.93;72.09
67517;BME280;68821;59.134;37.894;2023-08-07T02:58:04;100249.47;;;22.93;72.09
67517;BME280;68821;59.134;37.894;2023-08-07T03:00:30;100255.38;;;22.99;71.82
67517;BME280;68821;59.134;37.894;2023-08-07T03:02:56;100241.47;;;22.97;71.95
67517;BME280;68821;59.134;37.894;2023-08-07T03:05:22;100254.31;;;23.05;72.11
67517;BME280;68821;59.134;37.894;2023-08-07T03:07:48;100252.56;;;23.05;71.83
67517;BME280;68821;59.134;37.894;2023-08-07T03:10:14;100241.28;;;23.03;71.75
67517;BME280;68821;59.134;37.894;2023-08-07T03:12:40;100254.06;;;23.11;71.73
67517;BME280;68821;59.134;37.894;2023-08-07T03:15:06;100252.25;;;23.13;71.40
67517;BME280;68821;59.134;37.894;2023-08-07T03:17:32;100254.78;;;23.16;71.41
67517;BME280;68821;59.134;37.894;2023-08-07T03:19:58;100251.19;;;23.19;71.60
67517;BME280;68821;59.134;37.894;2023-08-07T03:22:24;100258.88;;;23.23;71.47
67517;BME280;68821;59.134;37.894;2023-08-07T03:24:50;100252.69;;;23.26;71.54
67517;BME280;68821;59.134;37.894;2023-08-07T03:27:16;100249.06;;;23.28;71.38
67517;BME280;68821;59.134;37.894;2023-08-07T03:29:42;100245.47;;;23.31;71.12
67517;BME280;68821;59.134;37.894;2023-08-07T03:32:09;100250.53;;;23.36;71.11
67517;BME280;68821;59.134;37.894;2023-08-07T03:34:35;100256.53;;;23.39;70.85
67517;BME280;68821;59.134;37.894;2023-08-07T03:37:01;100244.22;;;23.41;70.89
67517;BME280;68821;59.134;37.894;2023-08-07T03:39:27;100249.41;;;23.43;70.97
67517;BME280;68821;59.134;37.894;2023-08-07T03:41:53;100248.41;;;23.45;70.96
67517;BME280;68821;59.134;37.894;2023-08-07T03:44:19;100253.56;;;23.48;70.98
67517;BME280;68821;59.134;37.894;2023-08-07T03:46:45;100251.75;;;23.50;70.81
67517;BME280;68821;59.134;37.894;2023-08-07T03:49:11;100260.28;;;23.56;70.62
67517;BME280;68821;59.134;37.894;2023-08-07T03:51:37;100255.78;;;23.59;70.45
67517;BME280;68821;59.134;37.894;2023-08-07T03:54:03;100256.50;;;23.63;70.25
67517;BME280;68821;59.134;37.894;2023-08-07T03:56:29;100257.16;;;23.68;70.00
67517;BME280;68821;59.134;37.894;2023-08-07T03:59:02;100249.28;;;23.68;70.09
67517;BME280;68821;59.134;37.894;2023-08-07T04:01:28;100258.59;;;23.77;70.02
67517;BME280;68821;59.134;37.894;2023-08-07T04:03:54;100262.75;;;23.82;69.68
67517;BME280;68821;59.134;37.894;2023-08-07T04:06:20;100254.78;;;23.85;70.06
67517;BME280;68821;59.134;37.894;2023-08-07T04:08:47;100256.38;;;23.89;69.40
67517;BME280;68821;59.134;37.894;2023-08-07T04:11:13;100265.75;;;23.95;69.61
67517;BME280;68821;59.134;37.894;2023-08-07T04:13:39;100263.75;;;24.02;69.49
67517;BME280;68821;59.134;37.894;2023-08-07T04:16:05;100254.81;;;24.06;69.19
67517;BME280;68821;59.134;37.894;2023-08-07T04:18:34;100258.09;;;24.11;69.40
67517;BME280;68821;59.134;37.894;2023-08-07T04:21:00;100253.44;;;24.18;69.15
67517;BME280;68821;59.134;37.894;2023-08-07T04:23:26;100255.81;;;24.24;68.82
67517;BME280;68821;59.134;37.894;2023-08-07T04:25:53;100255.63;;;24.28;68.97
67517;BME280;68821;59.134;37.894;2023-08-07T04:28:19;100259.84;;;24.33;68.69
67517;BME280;68821;59.134;37.894;2023-08-07T04:30:49;100250.03;;;24.36;68.66
67517;BME280;68821;59.134;37.894;2023-08-07T04:33:29;100255.03;;;24.42;68.33
67517;BME280;68821;59.134;37.894;2023-08-07T04:35:55;100258.34;;;24.47;68.58
67517;BME280;68821;59.134;37.894;2023-08-07T04:38:22;100259.94;;;24.52;68.20
67517;BME280;68821;59.134;37.894;2023-08-07T04:40:49;100261.53;;;24.56;68.20
67517;BME280;68821;59.134;37.894;2023-08-07T04:43:17;100262.03;;;24.64;67.67
67517;BME280;68821;59.134;37.894;2023-08-07T04:45:43;100261.84;;;24.68;68.05
67517;BME280;68821;59.134;37.894;2023-08-07T04:48:11;100258.09;;;24.74;67.82
67517;BME280;68821;59.134;37.894;2023-08-07T04:50:38;100252.84;;;24.74;67.52
67517;BME280;68821;59.134;37.894;2023-08-07T04:53:04;100266.44;;;24.84;68.07
67517;BME280;68821;59.134;37.894;2023-08-07T04:55:31;100260.91;;;24.90;67.46
67517;BME280;68821;59.134;37.894;2023-08-07T04:57:58;100259.84;;;24.94;67.82
67517;BME280;68821;59.134;37.894;2023-08-07T05:00:24;100260.47;;;24.99;67.55
67517;BME280;68821;59.134;37.894;2023-08-07T05:02:51;100259.41;;;25.03;67.50
67517;BME280;68821;59.134;37.894;2023-08-07T05:05:17;100249.63;;;25.07;67.05
67517;BME280;68821;59.134;37.894;2023-08-07T05:07:47;100252.81;;;25.14;67.21
67517;BME280;68821;59.134;37.894;2023-08-07T05:10:14;100250.72;;;25.22;66.93
67517;BME280;68821;59.134;37.894;2023-08-07T05:12:40;100250.50;;;25.26;66.59
67517;BME280;68821;59.134;37.894;2023-08-07T05:15:06;100254.56;;;25.34;66.63
67517;BME280;68821;59.134;37.894;2023-08-07T05:17:32;100249.09;;;25.38;66.75
67517;BME280;68821;59.134;37.894;2023-08-07T05:19:58;100250.66;;;25.42;66.53
67517;BME280;68821;59.134;37.894;2023-08-07T05:22:24;100249.56;;;25.46;66.50
67517;BME280;68821;59.134;37.894;2023-08-07T05:24:50;100246.59;;;25.54;66.18
67517;BME280;68821;59.134;37.894;2023-08-07T05:27:16;100245.53;;;25.58;66.36
67517;BME280;68821;59.134;37.894;2023-08-07T05:29:42;100244.28;;;25.65;66.34
67517;BME280;68821;59.134;37.894;2023-08-07T05:32:14;100245.78;;;25.71;65.86
67517;BME280;68821;59.134;37.894;2023-08-07T05:34:41;100239.31;;;25.78;65.56
67517;BME280;68821;59.134;37.894;2023-08-07T05:37:07;100243.38;;;25.84;66.20
67517;BME280;68821;59.134;37.894;2023-08-07T05:39:34;100237.78;;;25.92;65.55
67517;BME280;68821;59.134;37.894;2023-08-07T05:42:01;100242.75;;;25.98;65.72
67517;BME280;68821;59.134;37.894;2023-08-07T05:44:27;100236.28;;;26.05;64.94
67517;BME280;68821;59.134;37.894;2023-08-07T05:46:53;100247.47;;;26.08;64.88
67517;BME280;68821;59.134;37.894;2023-08-07T05:49:21;100250.75;;;26.14;64.40
67517;BME280;68821;59.134;37.894;2023-08-07T05:51:47;100246.19;;;26.17;64.44
67517;BME280;68821;59.134;37.894;2023-08-07T05:54:13;100242.53;;;26.20;64.90
67517;BME280;68821;59.134;37.894;2023-08-07T05:56:41;100238.13;;;26.20;64.38
67517;BME280;68821;59.134;37.894;2023-08-07T05:59:07;100242.94;;;26.29;64.47
67517;BME280;68821;59.134;37.894;2023-08-07T06:01:33;100244.50;;;26.34;64.06
67517;BME280;68821;59.134;37.894;2023-08-07T06:03:59;100238.91;;;26.40;64.43
67517;BME280;68821;59.134;37.894;2023-08-07T06:06:25;100237.13;;;26.40;63.79
67517;BME280;68821;59.134;37.894;2023-08-07T06:08:56;100243.94;;;26.44;63.93
67517;BME280;68821;59.134;37.894;2023-08-07T06:11:22;100243.75;;;26.47;63.46
67517;BME280;68821;59.134;37.894;2023-08-07T06:13:49;100244.31;;;26.54;63.84
67517;BME280;68821;59.134;37.894;2023-08-07T06:16:15;100237.03;;;26.59;63.31
67517;BME280;68821;59.134;37.894;2023-08-07T06:18:41;100241.28;;;26.62;62.70
67517;BME280;68821;59.134;37.894;2023-08-07T06:21:07;100239.34;;;26.65;62.63
67517;BME280;68821;59.134;37.894;2023-08-07T06:23:33;100229.50;;;26.69;62.75
67517;BME280;68821;59.134;37.894;2023-08-07T06:25:59;100228.41;;;26.73;62.41
67517;BME280;68821;59.134;37.894;2023-08-07T06:28:31;100224.50;;;26.80;62.89
67517;BME280;68821;59.134;37.894;2023-08-07T06:31:05;100221.47;;;26.88;62.00
67517;BME280;68821;59.134;37.894;2023-08-07T06:33:31;100233.31;;;26.97;61.63
67517;BME280;68821;59.134;37.894;2023-08-07T06:35:59;100222.41;;;27.03;61.71
67517;BME280;68821;59.134;37.894;2023-08-07T06:38:28;100217.84;;;27.06;61.80
67517;BME280;68821;59.134;37.894;2023-08-07T06:40:54;100226.09;;;27.16;61.00
67517;BME280;68821;59.134;37.894;2023-08-07T06:43:21;100218.00;;;27.19;60.36
67517;BME280;68821;59.134;37.894;2023-08-07T06:45:49;100229.91;;;27.28;60.48
67517;BME280;68821;59.134;37.894;2023-08-07T06:48:15;100221.63;;;27.34;60.30
67517;BME280;68821;59.134;37.894;2023-08-07T06:50:41;100220.63;;;27.37;60.27
67517;BME280;68821;59.134;37.894;2023-08-07T06:53:07;100221.13;;;27.43;59.66
67517;BME280;68821;59.134;37.894;2023-08-07T06:55:33;100225.13;;;27.51;59.82
67517;BME280;68821;59.134;37.894;2023-08-07T06:57:59;100223.16;;;27.54;59.25
67517;BME280;68821;59.134;37.894;2023-08-07T07:00:26;100219.50;;;27.57;58.77
67517;BME280;68821;59.134;37.894;2023-08-07T07:02:52;100212.34;;;27.59;59.32
67517;BME280;68821;59.134;37.894;2023-08-07T07:05:18;100216.59;;;27.61;59.24
67517;BME280;68821;59.134;37.894;2023-08-07T07:07:44;100210.97;;;27.67;58.84
67517;BME280;68821;59.134;37.894;2023-08-07T07:10:10;100228.06;;;27.76;58.32
67517;BME280;68821;59.134;37.894;2023-08-07T07:12:36;100217.41;;;27.78;57.91
67517;BME280;68821;59.134;37.894;2023-08-07T07:15:03;100215.47;;;27.81;57.81
67517;BME280;68821;59.134;37.894;2023-08-07T07:17:29;100213.47;;;27.85;57.32
67517;BME280;68821;59.134;37.894;2023-08-07T07:19:55;100209.84;;;27.87;57.00
67517;BME280;68821;59.134;37.894;2023-08-07T07:22:22;100212.38;;;27.89;56.88
67517;BME280;68821;59.134;37.894;2023-08-07T07:24:49;100206.94;;;27.92;56.55
67517;BME280;68821;59.134;37.894;2023-08-07T07:27:15;100204.88;;;27.97;56.16
67517;BME280;68821;59.134;37.894;2023-08-07T07:29:41;100214.91;;;28.06;56.16
67517;BME280;68821;59.134;37.894;2023-08-07T07:32:08;100203.28;;;28.09;55.95
67517;BME280;68821;59.134;37.894;2023-08-07T07:34:34;100216.34;;;28.12;55.57
67517;BME280;68821;59.134;37.894;2023-08-07T07:37:00;100203.13;;;28.12;55.36
67517;BME280;68821;59.134;37.894;2023-08-07T07:39:26;100209.94;;;28.16;55.08
67517;BME280;68821;59.134;37.894;2023-08-07T07:41:52;100209.38;;;28.25;54.90
67517;BME280;68821;59.134;37.894;2023-08-07T07:44:18;100207.13;;;28.34;54.45
67517;BME280;68821;59.134;37.894;2023-08-07T07:46:44;100211.00;;;28.42;54.10
67517;BME280;68821;59.134;37.894;2023-08-07T07:49:10;100212.63;;;28.45;54.21
67517;BME280;68821;59.134;37.894;2023-08-07T07:51:36;100216.03;;;28.47;53.98
67517;BME280;68821;59.134;37.894;2023-08-07T07:54:03;100202.91;;;28.45;53.92
67517;BME280;68821;59.134;37.894;2023-08-07T07:56:29;100213.22;;;28.50;53.44
67517;BME280;68821;59.134;37.894;2023-08-07T07:58:55;100206.03;;;28.52;53.47
67517;BME280;68821;59.134;37.894;2023-08-07T08:01:21;100214.44;;;28.59;53.63
67517;BME280;68821;59.134;37.894;2023-08-07T08:03:47;100211.53;;;28.63;53.20
67517;BME280;68821;59.134;37.894;2023-08-07T08:06:13;100205.00;;;28.69;53.54
67517;BME280;68821;59.134;37.894;2023-08-07T08:08:39;100206.63;;;28.72;52.78
67517;BME280;68821;59.134;37.894;2023-08-07T08:11:06;100210.78;;;28.76;52.95
67517;BME280;68821;59.134;37.894;2023-08-07T08:13:31;100205.38;;;28.77;52.95
67517;BME280;68821;59.134;37.894;2023-08-07T08:15:58;100200.84;;;28.79;52.67
67517;BME280;68821;59.134;37.894;2023-08-07T08:18:24;100203.41;;;28.81;52.88
67517;BME280;68821;59.134;37.894;2023-08-07T08:20:51;100204.63;;;28.89;52.45
67517;BME280;68821;59.134;37.894;2023-08-07T08:23:17;100204.16;;;28.97;52.48
67517;BME280;68821;59.134;37.894;2023-08-07T08:25:43;100212.47;;;29.05;52.04
67517;BME280;68821;59.134;37.894;2023-08-07T08:28:09;100203.38;;;29.09;51.64
67517;BME280;68821;59.134;37.894;2023-08-07T08:30:35;100210.47;;;29.09;51.92
67517;BME280;68821;59.134;37.894;2023-08-07T08:33:01;100215.59;;;29.12;51.88
67517;BME280;68821;59.134;37.894;2023-08-07T08:35:27;100203.31;;;29.11;52.10
67517;BME280;68821;59.134;37.894;2023-08-07T08:37:53;100208.97;;;29.19;51.43
67517;BME280;68821;59.134;37.894;2023-08-07T08:40:19;100213.03;;;29.25;51.41
67517;BME280;68821;59.134;37.894;2023-08-07T08:42:46;100210.28;;;29.26;50.74
67517;BME280;68821;59.134;37.894;2023-08-07T08:45:13;100212.16;;;29.24;50.13
67517;BME280;68821;59.134;37.894;2023-08-07T08:47:41;100209.63;;;29.23;49.76
67517;BME280;68821;59.134;37.894;2023-08-07T08:50:11;100214.34;;;29.18;50.43
67517;BME280;68821;59.134;37.894;2023-08-07T08:52:41;100215.97;;;29.20;49.72
67517;BME280;68821;59.134;37.894;2023-08-07T08:55:09;100209.63;;;29.23;50.12
67517;BME280;68821;59.134;37.894;2023-08-07T08:57:37;100210.41;;;29.25;49.67
67517;BME280;68821;59.134;37.894;2023-08-07T09:00:05;100207.75;;;29.25;49.75
67517;BME280;68821;59.134;37.894;2023-08-07T09:02:47;100202.31;;;29.26;50.20
67517;BME280;68821;59.134;37.894;2023-08-07T09:05:18;100201.47;;;29.26;50.10
67517;BME280;68821;59.134;37.894;2023-08-07T09:07:47;100204.69;;;29.31;49.39
67517;BME280;68821;59.134;37.894;2023-08-07T09:10:14;100194.94;;;29.32;49.40
67517;BME280;68821;59.134;37.894;2023-08-07T09:12:43;100197.28;;;29.36;49.75
67517;BME280;68821;59.134;37.894;2023-08-07T09:15:11;100198.72;;;29.42;50.09
67517;BME280;68821;59.134;37.894;2023-08-07T09:17:42;100197.34;;;29.49;49.54
67517;BME280;68821;59.134;37.894;2023-08-07T09:20:10;100191.03;;;29.52;49.91
67517;BME280;68821;59.134;37.894;2023-08-07T09:22:40;100202.06;;;29.58;49.37
67517;BME280;68821;59.134;37.894;2023-08-07T09:25:06;100193.88;;;29.61;49.74
67517;BME280;68821;59.134;37.894;2023-08-07T09:27:33;100191.81;;;29.66;49.40
67517;BME280;68821;59.134;37.894;2023-08-07T09:29:59;100179.50;;;29.65;49.44
67517;BME280;68821;59.134;37.894;2023-08-07T09:32:25;100196.63;;;29.74;49.48
67517;BME280;68821;59.134;37.894;2023-08-07T09:34:53;100179.34;;;29.81;49.14
67517;BME280;68821;59.134;37.894;2023-08-07T09:37:19;100188.31;;;29.93;48.81
67517;BME280;68821;59.134;37.894;2023-08-07T09:39:46;100183.22;;;30.03;48.36
67517;BME280;68821;59.134;37.894;2023-08-07T09:42:15;100178.88;;;30.15;47.94
67517;BME280;68821;59.134;37.894;2023-08-07T09:44:42;100177.56;;;30.35;47.84
67517;BME280;68821;59.134;37.894;2023-08-07T09:47:16;100171.19;;;30.63;47.61
67517;BME280;68821;59.134;37.894;2023-08-07T09:49:43;100161.41;;;30.89;47.05
67517;BME280;68821;59.134;37.894;2023-08-07T09:52:10;100157.72;;;31.16;46.58
67517;BME280;68821;59.134;37.894;2023-08-07T09:54:39;100155.47;;;31.46;45.64
67517;BME280;68821;59.134;37.894;2023-08-07T09:57:05;100159.28;;;31.66;45.37
67517;BME280;68821;59.134;37.894;2023-08-07T09:59:33;100148.84;;;31.87;45.31
67517;BME280;68821;59.134;37.894;2023-08-07T10:02:00;100151.47;;;32.12;44.78
67517;BME280;68821;59.134;37.894;2023-08-07T10:04:30;100151.38;;;32.36;43.79
67517;BME280;68821;59.134;37.894;2023-08-07T10:06:57;100154.19;;;32.57;44.15
67517;BME280;68821;59.134;37.894;2023-08-07T10:09:24;100153.22;;;32.69;43.83
67517;BME280;68821;59.134;37.894;2023-08-07T10:11:52;100157.22;;;32.86;43.33
67517;BME280;68821;59.134;37.894;2023-08-07T10:14:22;100147.97;;;33.01;42.89
67517;BME280;68821;59.134;37.894;2023-08-07T10:16:49;100141.56;;;33.15;43.36
67517;BME280;68821;59.134;37.894;2023-08-07T10:19:15;100141.78;;;33.23;42.15
67517;BME280;68821;59.134;37.894;2023-08-07T10:21:41;100139.66;;;33.38;42.50
67517;BME280;68821;59.134;37.894;2023-08-07T10:24:10;100142.63;;;33.56;41.69
67517;BME280;68821;59.134;37.894;2023-08-07T10:26:41;100138.94;;;33.69;41.57
67517;BME280;68821;59.134;37.894;2023-08-07T10:29:11;100135.84;;;33.84;41.70
67517;BME280;68821;59.134;37.894;2023-08-07T10:31:40;100135.03;;;33.94;41.29
67517;BME280;68821;59.134;37.894;2023-08-07T10:34:08;100131.00;;;33.99;40.99
67517;BME280;68821;59.134;37.894;2023-08-07T10:36:35;100138.50;;;34.05;40.84
67517;BME280;68821;59.134;37.894;2023-08-07T10:39:12;100133.47;;;34.12;40.50
67517;BME280;68821;59.134;37.894;2023-08-07T10:41:39;100134.84;;;34.28;40.15
67517;BME280;68821;59.134;37.894;2023-08-07T10:44:17;100123.06;;;34.30;40.27
67517;BME280;68821;59.134;37.894;2023-08-07T10:46:54;100121.16;;;34.42;40.22
67517;BME280;68821;59.134;37.894;2023-08-07T10:49:40;100127.66;;;34.59;40.11
67517;BME280;68821;59.134;37.894;2023-08-07T10:52:12;100119.72;;;34.69;39.65
67517;BME280;68821;59.134;37.894;2023-08-07T10:54:50;100108.81;;;35.01;38.97
67517;BME280;68821;59.134;37.894;2023-08-07T10:57:18;100108.47;;;36.11;37.74
67517;BME280;68821;59.134;37.894;2023-08-07T11:00:04;100105.44;;;37.97;36.06
67517;BME280;68821;59.134;37.894;2023-08-07T11:02:31;100104.78;;;39.63;34.03
67517;BME280;68821;59.134;37.894;2023-08-07T11:04:59;100104.25;;;41.34;32.53
67517;BME280;68821;59.134;37.894;2023-08-07T11:07:31;100098.56;;;42.71;32.51
67517;BME280;68821;59.134;37.894;2023-08-07T11:09:58;100102.53;;;44.18;30.71
67517;BME280;68821;59.134;37.894;2023-08-07T11:12:28;100098.09;;;45.27;29.14
67517;BME280;68821;59.134;37.894;2023-08-07T11:14:55;100094.28;;;46.08;27.59
67517;BME280;68821;59.134;37.894;2023-08-07T11:17:25;100097.19;;;46.65;27.00
67517;BME280;68821;59.134;37.894;2023-08-07T11:19:51;100088.75;;;46.80;26.78
67517;BME280;68821;59.134;37.894;2023-08-07T11:22:18;100085.88;;;46.61;26.11
67517;BME280;68821;59.134;37.894;2023-08-07T11:24:45;100087.88;;;46.41;26.25
67517;BME280;68821;59.134;37.894;2023-08-07T11:27:12;100090.53;;;45.82;26.61
67517;BME280;68821;59.134;37.894;2023-08-07T11:29:38;100080.97;;;45.46;26.82
67517;BME280;68821;59.134;37.894;2023-08-07T11:32:05;100089.28;;;45.25;26.49
67517;BME280;68821;59.134;37.894;2023-08-07T11:34:31;100079.91;;;45.14;26.34
67517;BME280;68821;59.134;37.894;2023-08-07T11:36:57;100083.66;;;44.99;26.47
67517;BME280;68821;59.134;37.894;2023-08-07T11:39:24;100081.28;;;44.76;26.55
67517;BME280;68821;59.134;37.894;2023-08-07T11:41:50;100077.88;;;44.48;26.93
67517;BME280;68821;59.134;37.894;2023-08-07T11:44:18;100076.44;;;44.58;26.81
67517;BME280;68821;59.134;37.894;2023-08-07T11:46:44;100075.81;;;44.63;26.54
67517;BME280;68821;59.134;37.894;2023-08-07T11:49:12;100068.56;;;43.87;26.82
67517;BME280;68821;59.134;37.894;2023-08-07T11:51:38;100064.06;;;42.73;27.94
67517;BME280;68821;59.134;37.894;2023-08-07T11:54:04;100052.88;;;41.80;28.73
67517;BME280;68821;59.134;37.894;2023-08-07T11:56:30;100054.97;;;40.94;29.43
67517;BME280;68821;59.134;37.894;2023-08-07T11:58:57;100046.91;;;40.32;30.05
67517;BME280;68821;59.134;37.894;2023-08-07T12:01:26;100043.63;;;39.97;30.46
67517;BME280;68821;59.134;37.894;2023-08-07T12:06:23;100048.78;;;41.32;29.43
67517;BME280;68821;59.134;37.894;2023-08-07T12:08:55;100038.34;;;41.67;29.27
67517;BME280;68821;59.134;37.894;2023-08-07T12:11:22;100047.56;;;41.72;29.48
67517;BME280;68821;59.134;37.894;2023-08-07T12:13:48;100042.91;;;41.28;30.08
67517;BME280;68821;59.134;37.894;2023-08-07T12:16:16;100043.41;;;40.54;30.48
67517;BME280;68821;59.134;37.894;2023-08-07T12:18:50;100037.59;;;39.78;31.14
67517;BME280;68821;59.134;37.894;2023-08-07T12:21:18;100044.56;;;39.15;31.65
67517;BME280;68821;59.134;37.894;2023-08-07T12:23:45;100039.19;;;38.99;32.42
67517;BME280;68821;59.134;37.894;2023-08-07T12:26:14;100034.66;;;39.24;32.02
67517;BME280;68821;59.134;37.894;2023-08-07T12:28:40;100030.78;;;40.15;31.21
67517;BME280;68821;59.134;37.894;2023-08-07T12:31:06;100027.28;;;40.69;30.72
67517;BME280;68821;59.134;37.894;2023-08-07T12:33:33;100034.25;;;40.32;31.17
67517;BME280;68821;59.134;37.894;2023-08-07T12:35:59;100020.69;;;39.37;31.50
67517;BME280;68821;59.134;37.894;2023-08-07T12:38:25;100015.34;;;38.45;32.73
67517;BME280;68821;59.134;37.894;2023-08-07T12:40:52;100026.44;;;37.73;33.13
67517;BME280;68821;59.134;37.894;2023-08-07T12:43:18;100016.19;;;37.24;33.80
67517;BME280;68821;59.134;37.894;2023-08-07T12:45:45;100019.78;;;36.97;34.23